createdAt,value
2018-07-03T00:01:36.482Z,16.37
2018-07-03T00:04:06.020Z,16.45
2018-07-03T00:06:35.379Z,16.52
2018-07-03T00:09:07.390Z,16.42
2018-07-03T00:11:36.739Z,16.37
2018-07-03T00:14:06.410Z,17.01
2018-07-03T00:16:40.957Z,16.35
2018-07-03T00:19:10.314Z,16.42
2018-07-03T00:21:39.679Z,16.31
2018-07-03T00:24:09.039Z,16.33
2018-07-03T00:26:38.385Z,16.43
2018-07-03T00:29:07.532Z,16.16
2018-07-03T00:31:36.883Z,16.34
2018-07-03T00:34:06.284Z,16.39
2018-07-03T00:36:35.634Z,16.36
2018-07-03T00:39:07.379Z,16.35
2018-07-03T00:41:36.739Z,16.27
2018-07-03T00:44:05.853Z,16.77
2018-07-03T00:46:35.211Z,15.63
2018-07-03T00:49:04.588Z,16.22
2018-07-03T00:51:33.963Z,16.28
2018-07-03T00:54:03.331Z,16.09
2018-07-03T00:56:32.691Z,16.64
2018-07-03T00:59:02.112Z,15.93
2018-07-03T01:01:31.477Z,15.89
2018-07-03T01:04:00.860Z,15.86
2018-07-03T01:06:30.468Z,15.79
2018-07-03T01:09:00.065Z,15.89
2018-07-03T01:11:29.275Z,15.92
2018-07-03T01:13:58.868Z,15.81
2018-07-03T01:16:28.219Z,15.78
2018-07-03T01:18:57.562Z,15.81
2018-07-03T01:21:26.671Z,15.91
2018-07-03T01:23:55.758Z,15.96
2018-07-03T01:26:25.082Z,15.89
2018-07-03T01:28:54.967Z,15.76
2018-07-03T01:31:24.506Z,15.83
2018-07-03T01:33:53.869Z,15.47
2018-07-03T01:36:23.231Z,15.28
2018-07-03T01:38:52.597Z,15.19
2018-07-03T01:41:21.960Z,15.15
2018-07-03T01:43:51.458Z,15.22
2018-07-03T01:46:20.828Z,15.08
2018-07-03T01:48:50.175Z,15.11
2018-07-03T01:51:19.556Z,15.13
2018-07-03T01:53:48.914Z,15.25
2018-07-03T01:56:18.278Z,15.29
2018-07-03T01:58:47.639Z,14.77
2018-07-03T02:01:17.009Z,15.05
2018-07-03T02:03:46.364Z,15.00
2018-07-03T02:06:15.672Z,14.72
2018-07-03T02:08:45.020Z,14.60
2018-07-03T02:11:14.327Z,14.50
2018-07-03T02:13:43.628Z,14.56
2018-07-03T02:16:12.957Z,14.59
2018-07-03T02:18:42.260Z,14.65
2018-07-03T02:21:11.572Z,14.53
2018-07-03T02:23:40.863Z,14.41
2018-07-03T02:26:10.172Z,14.39
2018-07-03T02:28:39.471Z,14.43
2018-07-03T02:31:08.785Z,14.40
2018-07-03T02:33:38.094Z,14.95
2018-07-03T02:36:08.648Z,14.32
2018-07-03T02:38:37.943Z,14.01
2018-07-03T02:41:07.896Z,13.72
2018-07-03T02:43:37.451Z,13.39
2018-07-03T02:46:07.253Z,13.19
2018-07-03T02:48:36.464Z,12.89
2018-07-03T02:51:05.808Z,12.84
2018-07-03T02:53:35.167Z,12.67
2018-07-03T02:56:04.294Z,12.60
2018-07-03T02:58:33.652Z,12.84
2018-07-03T03:01:02.745Z,12.95
2018-07-03T03:03:31.847Z,12.93
2018-07-03T03:06:00.931Z,12.81
2018-07-03T03:08:30.028Z,12.81
2018-07-03T03:10:59.353Z,13.26
2018-07-03T03:13:28.667Z,12.58
2018-07-03T03:15:57.997Z,12.36
2018-07-03T03:18:27.332Z,12.23
2018-07-03T03:20:56.484Z,13.19
2018-07-03T03:23:26.140Z,11.97
2018-07-03T03:25:55.354Z,11.74
2018-07-03T03:28:24.700Z,11.83
2018-07-03T03:30:54.009Z,11.91
2018-07-03T03:33:23.339Z,11.98
2018-07-03T03:35:52.672Z,11.87
2018-07-03T03:38:22.013Z,11.99
2018-07-03T03:40:51.355Z,11.93
2018-07-03T03:43:20.681Z,11.81
2018-07-03T03:45:50.048Z,11.67
2018-07-03T03:48:19.148Z,11.57
2018-07-03T03:50:48.473Z,11.51
2018-07-03T03:53:17.832Z,11.59
2018-07-03T03:55:46.914Z,11.56
2018-07-03T03:58:16.326Z,11.76
2018-07-03T04:00:45.692Z,12.51
2018-07-03T04:03:14.973Z,11.79
2018-07-03T04:05:44.308Z,11.68
2018-07-03T04:08:13.627Z,11.74
2018-07-03T04:10:42.973Z,12.92
2018-07-03T04:13:12.404Z,11.68
2018-07-03T04:15:41.736Z,11.80
2018-07-03T04:18:10.815Z,11.02
2018-07-03T04:20:40.143Z,11.48
2018-07-03T04:23:09.477Z,11.57
2018-07-03T04:25:38.804Z,11.57
2018-07-03T04:28:08.946Z,11.61
2018-07-03T04:30:38.271Z,11.82
2018-07-03T04:33:07.591Z,12.05
2018-07-03T04:35:36.928Z,12.16
2018-07-03T04:38:06.284Z,12.17
2018-07-03T04:40:35.644Z,12.08
2018-07-03T04:43:05.004Z,12.23
2018-07-03T04:45:34.332Z,12.41
2018-07-03T04:48:03.656Z,12.61
2018-07-03T04:50:32.721Z,12.74
2018-07-03T04:53:02.064Z,12.73
2018-07-03T04:55:31.436Z,12.79
2018-07-03T04:58:00.939Z,12.77
2018-07-03T05:00:30.676Z,13.04
2018-07-03T05:03:00.189Z,13.26
2018-07-03T05:05:29.677Z,13.35
2018-07-03T05:07:58.979Z,13.42
2018-07-03T05:10:28.075Z,13.54
2018-07-03T05:12:57.181Z,13.62
2018-07-03T05:15:26.584Z,13.69
2018-07-03T05:17:55.882Z,13.75
2018-07-03T05:20:25.232Z,13.95
2018-07-03T05:22:54.609Z,13.99
2018-07-03T05:25:23.961Z,14.10
2018-07-03T05:27:53.311Z,14.87
2018-07-03T05:30:22.660Z,14.36
2018-07-03T05:32:52.015Z,14.24
2018-07-03T05:35:21.384Z,14.58
2018-07-03T05:37:50.476Z,14.63
2018-07-03T05:40:19.572Z,14.78
2018-07-03T05:42:48.938Z,14.84
2018-07-03T05:45:18.268Z,14.96
2018-07-03T05:47:47.351Z,14.96
2018-07-03T05:50:16.716Z,15.11
2018-07-03T05:52:46.080Z,15.28
2018-07-03T05:55:15.420Z,15.37
2018-07-03T05:57:44.768Z,15.41
2018-07-03T06:00:13.864Z,15.59
2018-07-03T06:02:43.224Z,15.69
2018-07-03T06:05:12.570Z,15.84
2018-07-03T06:07:41.654Z,15.90
2018-07-03T06:10:10.742Z,15.90
2018-07-03T06:12:40.092Z,15.42
2018-07-03T06:15:09.439Z,16.20
2018-07-03T06:17:38.887Z,16.18
2018-07-03T06:20:09.506Z,16.34
2018-07-03T06:22:38.915Z,16.59
2018-07-03T06:25:08.217Z,16.41
2018-07-03T06:27:37.568Z,16.78
2018-07-03T06:30:06.991Z,16.83
2018-07-03T06:32:36.348Z,16.91
2018-07-03T06:35:05.704Z,17.00
2018-07-03T06:37:34.868Z,17.03
2018-07-03T06:40:03.923Z,17.15
2018-07-03T06:42:33.275Z,17.29
2018-07-03T06:45:03.109Z,17.30
2018-07-03T06:47:31.887Z,16.80
2018-07-03T06:50:01.226Z,17.56
2018-07-03T06:52:30.565Z,17.59
2018-07-03T06:54:59.901Z,17.07
2018-07-03T06:57:29.227Z,17.78
2018-07-03T06:59:58.552Z,17.95
2018-07-03T07:02:27.868Z,18.05
2018-07-03T07:04:57.237Z,18.27
2018-07-03T07:07:26.571Z,18.36
2018-07-03T07:09:55.887Z,17.79
2018-07-03T07:12:24.965Z,18.55
2018-07-03T07:14:54.289Z,18.66
2018-07-03T07:17:23.607Z,18.73
2018-07-03T07:19:52.932Z,18.85
2018-07-03T07:22:22.243Z,18.94
2018-07-03T07:24:51.802Z,19.02
2018-07-03T07:27:21.205Z,19.09
2018-07-03T07:29:50.528Z,19.21
2018-07-03T07:32:19.845Z,19.36
2018-07-03T07:34:49.171Z,19.44
2018-07-03T07:37:18.498Z,19.55
2018-07-03T07:39:47.576Z,19.62
2018-07-03T07:42:16.895Z,19.69
2018-07-03T07:44:45.975Z,19.81
2018-07-03T07:47:15.044Z,19.79
2018-07-03T07:49:44.380Z,19.93
2018-07-03T07:52:13.460Z,20.04
2018-07-03T07:54:42.820Z,20.03
2018-07-03T07:57:12.172Z,20.17
2018-07-03T07:59:41.524Z,20.29
2018-07-03T08:02:10.868Z,20.39
2018-07-03T08:04:40.220Z,19.77
2018-07-03T08:07:09.565Z,20.64
2018-07-03T08:09:38.916Z,20.64
2018-07-03T08:12:09.504Z,20.81
2018-07-03T08:14:38.616Z,20.65
2018-07-03T08:17:07.980Z,21.02
2018-07-03T08:19:37.336Z,21.13
2018-07-03T08:22:06.761Z,21.19
2018-07-03T08:24:36.115Z,21.37
2018-07-03T08:27:05.231Z,21.51
2018-07-03T08:29:34.651Z,21.60
2018-07-03T08:32:03.996Z,21.68
2018-07-03T08:34:33.419Z,21.57
2018-07-03T08:37:03.019Z,21.64
2018-07-03T08:39:32.115Z,21.90
2018-07-03T08:42:01.467Z,22.00
2018-07-03T08:44:30.827Z,22.08
2018-07-03T08:47:00.172Z,22.17
2018-07-03T08:49:29.540Z,22.16
2018-07-03T08:51:58.897Z,22.13
2018-07-03T08:54:28.240Z,22.20
2018-07-03T08:56:57.596Z,22.35
2018-07-03T08:59:26.939Z,22.52
2018-07-03T09:01:56.299Z,22.64
2018-07-03T09:04:25.652Z,22.73
2018-07-03T09:06:55.025Z,22.80
2018-07-03T09:09:24.124Z,22.80
2018-07-03T09:11:53.477Z,22.79
2018-07-03T09:14:22.836Z,22.79
2018-07-03T09:16:52.187Z,22.84
2018-07-03T09:19:21.539Z,22.96
2018-07-03T09:21:50.884Z,23.01
2018-07-03T09:24:20.246Z,23.08
2018-07-03T09:26:49.608Z,23.18
2018-07-03T09:29:18.968Z,23.12
2018-07-03T09:31:48.315Z,23.19
2018-07-03T09:34:17.665Z,23.18
2018-07-03T09:36:47.016Z,23.18
2018-07-03T09:39:16.375Z,23.14
2018-07-03T09:41:45.724Z,23.32
2018-07-03T09:44:15.081Z,24.09
2018-07-03T09:46:44.433Z,23.38
2018-07-03T09:49:13.785Z,23.50
2018-07-03T09:51:43.136Z,23.44
2018-07-03T09:54:12.267Z,23.37
2018-07-03T09:56:41.615Z,23.37
2018-07-03T09:59:11.244Z,23.39
2018-07-03T10:01:40.331Z,23.39
2018-07-03T10:04:09.423Z,23.45
2018-07-03T10:06:38.579Z,23.76
2018-07-03T10:09:10.241Z,23.83
2018-07-03T10:11:39.600Z,23.93
2018-07-03T10:14:09.904Z,23.96
2018-07-03T10:16:39.107Z,24.06
2018-07-03T10:19:08.435Z,24.15
2018-07-03T10:21:37.796Z,24.21
2018-07-03T10:24:07.160Z,24.16
2018-07-03T10:26:36.516Z,24.22
2018-07-03T10:29:05.619Z,24.17
2018-07-03T10:31:34.977Z,24.10
2018-07-03T10:34:04.324Z,24.09
2018-07-03T10:36:33.675Z,24.26
2018-07-03T10:39:03.095Z,24.34
2018-07-03T10:41:32.462Z,24.49
2018-07-03T10:44:01.809Z,24.54
2018-07-03T10:46:30.910Z,24.56
2018-07-03T10:49:00.019Z,24.70
2018-07-03T10:51:29.114Z,24.75
2018-07-03T10:53:58.465Z,24.94
2018-07-03T10:56:27.784Z,24.97
2018-07-03T10:58:57.097Z,24.93
2018-07-03T11:01:26.187Z,25.00
2018-07-03T11:03:55.504Z,24.99
2018-07-03T11:06:24.596Z,24.95
2018-07-03T11:08:53.920Z,24.82
2018-07-03T11:11:23.239Z,25.03
2018-07-03T11:13:52.668Z,25.09
2018-07-03T11:16:21.916Z,25.07
2018-07-03T11:18:51.258Z,24.90
2018-07-03T11:21:20.576Z,24.90
2018-07-03T11:23:49.949Z,24.80
2018-07-03T11:26:19.277Z,24.93
2018-07-03T11:28:48.611Z,24.97
2018-07-03T11:31:17.945Z,25.08
2018-07-03T11:33:47.299Z,25.03
2018-07-03T11:36:16.664Z,25.12
2018-07-03T11:38:45.997Z,25.08
2018-07-03T11:41:15.313Z,25.30
2018-07-03T11:43:44.636Z,25.39
2018-07-03T11:46:13.980Z,25.55
2018-07-03T11:48:49.670Z,25.45
2018-07-03T11:51:18.993Z,25.71
2018-07-03T11:53:48.320Z,25.88
2018-07-03T11:56:17.643Z,26.03
2018-07-03T11:58:46.732Z,26.16
2018-07-03T12:01:16.039Z,26.11
2018-07-03T12:03:45.415Z,26.53
2018-07-03T12:06:14.731Z,26.42
2018-07-03T12:08:44.096Z,26.74
2018-07-03T12:11:13.439Z,27.09
2018-07-03T12:13:42.848Z,28.00
2018-07-03T12:16:12.184Z,27.54
2018-07-03T12:18:46.755Z,27.58
2018-07-03T12:21:16.144Z,27.40
2018-07-03T12:23:45.493Z,27.49
2018-07-03T12:26:14.824Z,27.63
2018-07-03T12:28:44.161Z,27.84
2018-07-03T12:31:13.489Z,28.12
2018-07-03T12:33:42.816Z,28.49
2018-07-03T12:36:12.150Z,28.54
2018-07-03T12:38:41.508Z,28.71
2018-07-03T12:41:10.837Z,29.00
2018-07-03T12:43:40.168Z,29.30
2018-07-03T12:46:09.512Z,29.33
2018-07-03T12:48:38.850Z,28.84
2018-07-03T12:51:08.260Z,28.01
2018-07-03T12:53:37.612Z,27.78
2018-07-03T12:56:06.945Z,27.76
2018-07-03T12:58:36.278Z,27.90
2018-07-03T13:01:05.641Z,27.87
2018-07-03T13:03:34.971Z,28.06
2018-07-03T13:06:04.300Z,28.43
2018-07-03T13:08:33.628Z,28.95
2018-07-03T13:11:02.972Z,29.30
2018-07-03T13:13:32.315Z,29.27
2018-07-03T13:16:01.632Z,29.61
2018-07-03T13:18:30.965Z,29.82
2018-07-03T13:21:00.296Z,29.65
2018-07-03T13:23:29.379Z,29.37
2018-07-03T13:25:58.723Z,29.67
2018-07-03T13:28:28.067Z,29.91
2018-07-03T13:30:57.383Z,29.91
2018-07-03T13:33:26.471Z,30.06
2018-07-03T13:35:55.815Z,29.10
2018-07-03T13:38:25.140Z,29.95
2018-07-03T13:40:54.461Z,29.88
2018-07-03T13:43:23.782Z,29.98
2018-07-03T13:45:52.875Z,30.44
2018-07-03T13:48:22.010Z,30.48
2018-07-03T13:50:51.079Z,30.66
2018-07-03T13:53:20.395Z,31.16
2018-07-03T13:55:49.719Z,30.37
2018-07-03T13:58:19.037Z,30.28
2018-07-03T14:00:48.425Z,29.53
2018-07-03T14:03:17.748Z,29.91
2018-07-03T14:05:47.072Z,29.97
2018-07-03T14:08:16.403Z,30.20
2018-07-03T14:10:45.723Z,30.52
2018-07-03T14:13:15.047Z,31.57
2018-07-03T14:15:44.375Z,31.05
2018-07-03T14:18:13.455Z,31.77
2018-07-03T14:20:42.770Z,32.27
2018-07-03T14:23:11.831Z,32.98
2018-07-03T14:25:41.152Z,33.45
2018-07-03T14:28:10.479Z,34.62
2018-07-03T14:30:39.824Z,34.09
2018-07-03T14:33:09.185Z,33.30
2018-07-03T14:35:38.506Z,33.48
2018-07-03T14:38:08.963Z,32.63
2018-07-03T14:40:38.281Z,31.78
2018-07-03T14:43:07.605Z,31.51
2018-07-03T14:45:37.102Z,30.93
2018-07-03T14:48:06.623Z,30.80
2018-07-03T14:50:35.985Z,31.31
2018-07-03T14:53:05.356Z,30.72
2018-07-03T14:55:34.899Z,29.80
2018-07-03T14:58:04.107Z,29.49
2018-07-03T15:00:33.452Z,29.40
2018-07-03T15:03:02.809Z,29.14
2018-07-03T15:05:31.916Z,29.23
2018-07-03T15:08:01.277Z,29.61
2018-07-03T15:10:30.633Z,30.25
2018-07-03T15:12:59.975Z,30.69
2018-07-03T15:15:29.321Z,31.32
2018-07-03T15:17:58.776Z,31.78
2018-07-03T15:20:28.244Z,32.18
2018-07-03T15:22:57.598Z,32.59
2018-07-03T15:25:26.944Z,32.63
2018-07-03T15:27:56.303Z,32.27
2018-07-03T15:30:25.651Z,32.25
2018-07-03T15:32:55.008Z,31.63
2018-07-03T15:35:24.351Z,31.35
2018-07-03T15:37:53.691Z,31.71
2018-07-03T15:40:23.113Z,32.04
2018-07-03T15:42:52.467Z,33.58
2018-07-03T15:45:21.858Z,32.52
2018-07-03T15:47:51.212Z,32.35
2018-07-03T15:50:20.577Z,31.57
2018-07-03T15:52:50.547Z,31.09
2018-07-03T15:55:19.623Z,30.93
2018-07-03T15:57:48.953Z,30.57
2018-07-03T16:00:18.286Z,30.80
2018-07-03T16:03:04.672Z,30.96
2018-07-03T16:05:54.827Z,31.12
2018-07-03T16:08:42.160Z,30.98
2018-07-03T16:11:11.231Z,30.65
2018-07-03T16:13:40.573Z,30.17
2018-07-03T16:16:09.901Z,29.87
2018-07-03T16:18:39.224Z,29.61
2018-07-03T16:21:08.579Z,29.79
2018-07-03T16:23:37.631Z,29.43
2018-07-03T16:26:06.966Z,29.30
2018-07-03T16:28:36.287Z,29.50
2018-07-03T16:31:05.604Z,29.61
2018-07-03T16:33:34.944Z,29.67
2018-07-03T16:36:04.023Z,29.59
2018-07-03T16:38:33.354Z,29.76
2018-07-03T16:41:02.675Z,29.72
2018-07-03T16:43:32.005Z,29.86
2018-07-03T16:46:01.324Z,29.63
2018-07-03T16:48:30.644Z,29.42
2018-07-03T16:50:59.724Z,29.32
2018-07-03T16:53:29.066Z,28.62
2018-07-03T16:55:58.383Z,29.34
2018-07-03T16:58:27.711Z,29.16
2018-07-03T17:00:57.032Z,29.24
2018-07-03T17:03:26.115Z,29.18
2018-07-03T17:05:55.427Z,29.06
2018-07-03T17:08:24.767Z,28.96
2018-07-03T17:10:54.092Z,28.78
2018-07-03T17:13:23.948Z,28.83
2018-07-03T17:15:53.023Z,28.74
2018-07-03T17:18:22.339Z,28.70
2018-07-03T17:20:51.440Z,28.84
2018-07-03T17:23:20.764Z,28.90
2018-07-03T17:25:50.093Z,28.85
2018-07-03T17:28:19.416Z,28.90
2018-07-03T17:30:48.743Z,28.90
2018-07-03T17:33:18.064Z,28.75
2018-07-03T17:35:47.401Z,28.74
2018-07-03T17:38:16.715Z,28.70
2018-07-03T17:41:03.212Z,28.58
2018-07-03T17:44:16.063Z,28.39
2018-07-03T17:46:45.139Z,28.20
2018-07-03T17:49:14.476Z,28.15
2018-07-03T17:51:43.796Z,28.08
2018-07-03T17:54:13.407Z,27.96
2018-07-03T17:56:42.740Z,27.81
2018-07-03T17:59:12.066Z,26.96
2018-07-03T18:01:41.135Z,27.44
2018-07-03T18:04:10.448Z,27.41
2018-07-03T18:06:39.775Z,28.10
2018-07-03T18:09:11.509Z,27.32
2018-07-03T18:11:40.846Z,27.28
2018-07-03T18:14:10.169Z,27.18
2018-07-03T18:16:39.489Z,27.08
2018-07-03T18:19:44.427Z,26.94
2018-07-03T18:22:13.752Z,26.85
2018-07-03T18:24:42.847Z,-56.45
2018-07-03T18:27:12.175Z,26.72
2018-07-03T18:29:41.717Z,26.59
2018-07-03T18:32:10.625Z,26.34
2018-07-03T18:34:40.006Z,26.19
2018-07-03T18:37:09.269Z,26.03
2018-07-03T18:39:38.847Z,25.93
2018-07-03T18:42:09.413Z,25.72
2018-07-03T18:44:39.081Z,25.46
2018-07-03T18:47:08.171Z,25.39
2018-07-03T18:49:37.479Z,24.84
2018-07-03T18:52:07.880Z,24.83
2018-07-03T18:54:37.192Z,24.77
2018-07-03T18:57:06.820Z,24.58
2018-07-03T18:59:36.143Z,24.55
2018-07-03T19:02:06.349Z,24.45
2018-07-03T19:04:35.687Z,24.39
2018-07-03T19:07:05.296Z,24.36
2018-07-03T19:09:34.603Z,24.37
2018-07-03T19:12:03.928Z,24.35
2018-07-03T19:14:33.238Z,24.18
2018-07-03T19:17:02.569Z,23.74
2018-07-03T19:19:31.896Z,23.40
2018-07-03T19:22:01.208Z,23.05
2018-07-03T19:24:30.522Z,22.89
2018-07-03T19:26:59.836Z,22.76
2018-07-03T19:29:29.165Z,22.47
2018-07-03T19:31:58.495Z,22.40
2018-07-03T19:34:27.901Z,22.37
2018-07-03T19:36:57.144Z,22.31
2018-07-03T19:39:26.459Z,22.24
2018-07-03T19:41:55.788Z,21.84
2018-07-03T19:44:25.107Z,21.67
2018-07-03T19:46:54.432Z,21.59
2018-07-03T19:49:23.756Z,21.23
2018-07-03T19:51:52.831Z,21.33
2018-07-03T19:54:28.448Z,21.16
2018-07-03T19:56:57.787Z,21.28
2018-07-03T19:59:27.107Z,21.30
2018-07-03T20:01:56.192Z,20.94
2018-07-03T20:04:25.246Z,20.87
2018-07-03T20:06:54.839Z,20.96
2018-07-03T20:09:24.151Z,20.91
2018-07-03T20:11:53.481Z,20.92
2018-07-03T20:14:22.787Z,19.47
2018-07-03T20:16:51.876Z,20.71
2018-07-03T20:19:21.179Z,21.87
2018-07-03T20:21:50.259Z,20.62
2018-07-03T20:24:19.569Z,20.50
2018-07-03T20:26:48.885Z,20.13
2018-07-03T20:29:17.951Z,20.01
2018-07-03T20:31:47.268Z,20.07
2018-07-03T20:34:16.388Z,19.98
2018-07-03T20:36:45.677Z,19.82
2018-07-03T20:39:14.745Z,19.65
2018-07-03T20:41:44.070Z,19.63
2018-07-03T20:44:13.123Z,18.88
2018-07-03T20:46:42.447Z,19.65
2018-07-03T20:49:11.765Z,19.84
2018-07-03T20:51:40.830Z,19.87
2018-07-03T20:54:10.189Z,19.91
2018-07-03T20:56:39.532Z,19.75
2018-07-03T20:59:08.875Z,19.55
2018-07-03T21:01:38.216Z,19.48
2018-07-03T21:04:07.607Z,19.31
2018-07-03T21:06:36.904Z,18.96
2018-07-03T21:09:08.410Z,18.70
2018-07-03T21:11:37.563Z,18.48
2018-07-03T21:14:07.660Z,18.46
2018-07-03T21:16:37.018Z,18.29
2018-07-03T21:19:06.400Z,18.29
2018-07-03T21:21:35.744Z,18.27
2018-07-03T21:24:05.277Z,18.27
2018-07-03T21:26:34.580Z,18.30
2018-07-03T21:29:03.973Z,18.22
2018-07-03T21:31:33.314Z,18.15
2018-07-03T21:34:02.655Z,18.06
2018-07-03T21:36:32.004Z,18.10
2018-07-03T21:39:01.453Z,17.96
2018-07-03T21:41:30.760Z,18.06
2018-07-03T21:44:00.100Z,18.20
2018-07-03T21:46:29.445Z,18.50
2018-07-03T21:48:58.539Z,19.17
2018-07-03T21:51:27.627Z,18.40
2018-07-03T21:53:56.736Z,18.25
2018-07-03T21:56:26.071Z,17.96
2018-07-03T21:58:55.487Z,17.81
2018-07-03T22:01:24.817Z,17.64
2018-07-03T22:03:54.173Z,17.27
2018-07-03T22:06:23.550Z,17.35
2018-07-03T22:08:52.884Z,17.75
2018-07-03T22:11:22.227Z,17.01
2018-07-03T22:13:51.316Z,16.92
2018-07-03T22:16:20.658Z,16.90
2018-07-03T22:18:50.194Z,16.83
2018-07-03T22:21:19.535Z,16.69
2018-07-03T22:23:48.648Z,16.61
2018-07-03T22:26:17.725Z,17.25
2018-07-03T22:28:46.819Z,16.61
2018-07-03T22:31:16.168Z,16.64
2018-07-03T22:33:45.512Z,16.59
2018-07-03T22:36:14.856Z,16.44
2018-07-03T22:38:44.292Z,16.39
2018-07-03T22:41:13.565Z,16.23
2018-07-03T22:43:42.916Z,16.37
2018-07-03T22:46:12.273Z,16.97
2018-07-03T22:48:41.620Z,16.35
2018-07-03T22:51:10.968Z,16.19
2018-07-03T22:53:40.309Z,16.27
2018-07-03T22:56:09.659Z,16.24
2018-07-03T22:58:38.998Z,16.09
2018-07-03T23:01:08.340Z,16.15
2018-07-03T23:03:37.680Z,16.37
2018-07-03T23:06:07.024Z,16.43
2018-07-03T23:08:36.364Z,16.93
2018-07-03T23:11:05.725Z,16.34
2018-07-03T23:13:35.064Z,16.32
2018-07-03T23:16:04.412Z,16.50
2018-07-03T23:18:33.752Z,16.36
2018-07-03T23:21:03.113Z,16.32
2018-07-03T23:23:32.470Z,16.08
2018-07-03T23:26:01.816Z,16.04
2018-07-03T23:28:31.184Z,15.91
2018-07-03T23:31:00.519Z,15.67
2018-07-03T23:33:30.052Z,15.49
2018-07-03T23:35:59.156Z,15.48
2018-07-03T23:38:28.247Z,15.41
2018-07-03T23:40:57.600Z,15.38
2018-07-03T23:43:26.944Z,15.26
2018-07-03T23:46:00.671Z,15.16
2018-07-03T23:48:46.952Z,15.12
2018-07-03T23:51:33.462Z,15.11
2018-07-03T23:54:19.792Z,15.12
2018-07-03T23:57:06.168Z,15.09
2018-07-03T23:59:52.596Z,15.06
